createdAt,value
2022-09-01T00:00:04.629Z,185.15
2022-09-01T00:02:31.467Z,178.75
2022-09-01T00:04:58.776Z,160.75
2022-09-01T00:07:29.929Z,217.50
2022-09-01T00:09:57.334Z,222.67
2022-09-01T00:12:25.583Z,195.52
2022-09-01T00:14:52.667Z,191.20
2022-09-01T00:17:19.678Z,203.70
2022-09-01T00:19:46.509Z,200.70
2022-09-01T00:22:13.530Z,201.13
2022-09-01T00:24:40.271Z,197.95
2022-09-01T00:27:07.136Z,211.98
2022-09-01T00:29:34.456Z,183.20
2022-09-01T00:32:01.276Z,190.30
2022-09-01T00:34:28.015Z,191.50
2022-09-01T00:36:54.831Z,151.27
2022-09-01T00:39:21.725Z,199.48
2022-09-01T00:41:50.646Z,160.35
2022-09-01T00:44:26.646Z,184.13
2022-09-01T00:46:57.292Z,228.95
2022-09-01T00:49:39.796Z,193.13
2022-09-01T00:52:41.492Z,258.20
2022-09-01T00:55:17.887Z,266.63
2022-09-01T00:57:45.644Z,281.77
2022-09-01T01:00:21.921Z,298.45
2022-09-01T01:02:55.696Z,376.40
2022-09-01T01:05:32.922Z,410.92
2022-09-01T01:08:02.767Z,364.15
2022-09-01T01:10:35.786Z,398.77
2022-09-01T01:13:08.766Z,406.33
2022-09-01T01:15:36.534Z,450.20
2022-09-01T01:18:03.479Z,429.77
2022-09-01T01:20:52.189Z,430.20
2022-09-01T01:23:39.033Z,459.95
2022-09-01T01:26:12.146Z,474.90
2022-09-01T01:28:43.977Z,477.27
2022-09-01T01:34:23.303Z,518.95
2022-09-01T01:36:50.704Z,558.25
2022-09-01T01:39:27.589Z,556.65
2022-09-01T01:41:57.802Z,399.45
2022-09-01T01:44:28.157Z,446.95
2022-09-01T01:46:57.229Z,402.13
2022-09-01T01:49:28.961Z,513.92
2022-09-01T01:51:59.024Z,423.30
2022-09-01T01:54:31.262Z,433.73
2022-09-01T01:57:04.313Z,443.02
2022-09-01T01:59:33.700Z,429.67
2022-09-01T02:02:03.727Z,393.05
2022-09-01T02:04:34.082Z,397.42
2022-09-01T02:07:01.381Z,396.42
2022-09-01T02:09:28.224Z,366.42
2022-09-01T02:11:57.251Z,316.20
2022-09-01T02:14:24.879Z,327.27
2022-09-01T02:16:55.946Z,324.60
2022-09-01T02:19:22.992Z,321.58
2022-09-01T02:21:54.245Z,292.38
2022-09-01T02:24:23.849Z,311.13
2022-09-01T02:26:50.789Z,236.75
2022-09-01T02:29:26.434Z,221.25
2022-09-01T02:31:54.445Z,191.63
2022-09-01T02:34:24.013Z,125.95
2022-09-01T02:36:54.745Z,114.75
2022-09-01T02:39:28.824Z,111.88
2022-09-01T02:41:56.310Z,121.72
2022-09-01T02:44:23.156Z,140.10
2022-09-01T02:46:50.631Z,145.27
2022-09-01T02:49:25.687Z,111.70
2022-09-01T02:51:53.969Z,110.97
2022-09-01T02:54:24.506Z,116.55
2022-09-01T02:56:54.400Z,123.95
2022-09-01T02:59:26.266Z,116.10
2022-09-01T03:01:54.453Z,133.25
2022-09-01T03:04:22.604Z,162.02
2022-09-01T03:06:54.828Z,180.48
2022-09-01T03:09:22.262Z,190.77
2022-09-01T03:11:52.439Z,181.05
2022-09-01T03:14:20.456Z,185.63
2022-09-01T03:16:48.113Z,156.02
2022-09-01T03:19:40.120Z,146.30
2022-09-01T03:22:06.902Z,124.75
2022-09-01T03:24:33.685Z,159.93
2022-09-01T03:27:01.024Z,194.07
2022-09-01T03:29:27.775Z,186.75
2022-09-01T03:31:54.586Z,247.68
2022-09-01T03:34:23.681Z,253.98
2022-09-01T03:36:51.183Z,212.07
2022-09-01T03:39:19.565Z,255.30
2022-09-01T03:41:46.355Z,266.90
2022-09-01T03:44:16.243Z,302.75
2022-09-01T03:46:44.135Z,291.45
2022-09-01T03:49:15.171Z,321.27
2022-09-01T03:51:44.748Z,352.93
2022-09-01T03:54:12.446Z,379.83
2022-09-01T03:56:42.052Z,350.65
2022-09-01T03:59:16.569Z,356.33
2022-09-01T04:01:45.316Z,367.15
2022-09-01T04:04:15.306Z,420.80
2022-09-01T04:06:44.442Z,397.52
2022-09-01T04:09:11.384Z,372.80
2022-09-01T04:11:45.038Z,324.27
2022-09-01T04:14:13.471Z,407.52
2022-09-01T04:16:59.141Z,384.10
2022-09-01T04:19:26.988Z,422.65
2022-09-01T04:22:02.209Z,405.75
2022-09-01T04:24:31.868Z,400.05
2022-09-01T04:27:02.079Z,351.92
2022-09-01T04:29:30.476Z,330.70
2022-09-01T04:32:05.428Z,266.85
2022-09-01T04:34:38.157Z,226.70
2022-09-01T04:37:18.618Z,219.85
2022-09-01T04:39:57.240Z,187.02
2022-09-01T04:42:27.491Z,176.32
2022-09-01T04:44:56.586Z,163.00
2022-09-01T04:47:30.192Z,159.65
2022-09-01T04:50:13.588Z,161.10
2022-09-01T04:52:42.661Z,157.38
2022-09-01T04:55:17.302Z,151.98
2022-09-01T04:57:49.395Z,159.95
2022-09-01T05:00:23.464Z,152.27
2022-09-01T05:03:02.635Z,157.75
2022-09-01T05:05:42.957Z,141.88
2022-09-01T05:08:24.029Z,165.18
2022-09-01T05:10:55.407Z,153.02
2022-09-01T05:13:23.506Z,138.18
2022-09-01T05:16:04.076Z,139.52
2022-09-01T05:18:31.000Z,140.48
2022-09-01T05:20:58.171Z,144.65
2022-09-01T05:23:26.490Z,142.27
2022-09-01T05:25:54.809Z,145.48
2022-09-01T05:28:25.179Z,144.77
2022-09-01T05:30:54.115Z,138.20
2022-09-01T05:33:22.051Z,141.68
2022-09-01T05:59:25.337Z,297.98
2022-09-01T06:01:54.719Z,516.92
2022-09-01T06:04:22.969Z,199.93
2022-09-01T06:07:07.895Z,98.13
2022-09-01T06:09:45.878Z,144.30
2022-09-01T06:12:18.106Z,11.98
2022-09-01T06:14:47.254Z,12.35
2022-09-01T06:17:16.202Z,12.55
2022-09-01T06:19:44.009Z,13.63
2022-09-01T06:22:11.229Z,13.55
2022-09-01T06:24:39.953Z,13.52
2022-09-01T06:27:10.433Z,13.43
2022-09-01T06:29:41.773Z,12.70
2022-09-01T06:32:10.233Z,13.05
2022-09-01T06:34:43.460Z,13.00
2022-09-01T06:37:13.605Z,14.50
2022-09-01T06:39:40.421Z,13.35
2022-09-01T06:42:09.406Z,13.32
2022-09-01T06:44:40.634Z,13.77
2022-09-01T06:47:08.959Z,13.07
2022-09-01T06:49:36.393Z,12.32
2022-09-01T06:52:05.600Z,12.50
2022-09-01T06:54:34.100Z,11.63
2022-09-01T06:59:53.887Z,12.93
2022-09-01T07:02:22.387Z,14.02
2022-09-01T07:04:53.562Z,11.38
2022-09-01T07:10:23.275Z,11.73
2022-09-01T07:13:11.603Z,10.10
2022-09-01T07:18:31.502Z,12.23
2022-09-01T07:21:06.959Z,10.77
2022-09-01T07:24:10.346Z,11.38
2022-09-01T07:26:26.500Z,11.30
2022-09-01T07:29:01.017Z,11.90
2022-09-01T07:32:44.180Z,10.73
2022-09-01T07:34:41.473Z,10.60
2022-09-01T07:38:03.376Z,11.32
2022-09-01T07:39:56.256Z,11.63
2022-09-01T07:45:28.832Z,11.85
2022-09-01T07:47:59.345Z,9.68
2022-09-01T07:53:23.287Z,12.10
2022-09-01T07:55:53.305Z,9.85
2022-09-01T07:58:25.872Z,11.57
2022-09-01T08:00:54.410Z,10.68
2022-09-01T08:03:25.056Z,9.40
2022-09-01T08:05:57.526Z,9.88
2022-09-01T08:08:29.014Z,9.45
2022-09-01T08:11:04.401Z,11.27
2022-09-01T08:13:38.938Z,10.57
2022-09-01T08:16:16.231Z,9.75
2022-09-01T08:18:48.578Z,9.32
2022-09-01T08:21:21.854Z,9.55
2022-09-01T08:23:49.482Z,9.77
2022-09-01T08:26:19.874Z,9.98
2022-09-01T08:28:54.345Z,12.38
2022-09-01T08:31:24.114Z,10.40
2022-09-01T08:33:51.798Z,9.32
2022-09-01T08:36:23.747Z,12.23
2022-09-01T08:38:52.635Z,9.52
2022-09-01T08:41:35.663Z,9.35
2022-09-01T08:44:47.677Z,12.30
2022-09-01T08:47:28.794Z,10.93
2022-09-01T08:50:00.384Z,11.63
2022-09-01T08:52:34.593Z,10.95
2022-09-01T08:55:22.049Z,10.40
2022-09-01T08:57:54.794Z,10.90
2022-09-01T09:00:33.345Z,11.60
2022-09-01T09:03:55.112Z,10.63
2022-09-01T09:06:32.555Z,9.82
2022-09-01T09:09:08.175Z,11.88
2022-09-01T09:12:01.637Z,10.48
2022-09-01T09:14:48.381Z,12.45
2022-09-01T09:17:21.575Z,9.23
2022-09-01T09:19:48.317Z,9.82
2022-09-01T09:22:19.647Z,11.27
2022-09-01T09:24:52.535Z,10.43
2022-09-01T09:27:40.158Z,10.05
2022-09-01T09:30:20.870Z,11.80
2022-09-01T09:35:54.086Z,48.50
2022-09-01T09:38:31.495Z,11.68
2022-09-01T09:41:17.031Z,10.35
2022-09-01T09:44:03.550Z,20.33
2022-09-01T09:46:43.761Z,11.00
2022-09-01T09:49:36.150Z,43.45
2022-09-01T09:52:16.984Z,11.27
2022-09-01T09:55:22.237Z,10.50
2022-09-01T09:57:51.272Z,10.88
2022-09-01T10:01:05.699Z,11.15
2022-09-01T10:04:01.141Z,34.25
2022-09-01T10:06:47.031Z,10.15
2022-09-01T10:09:22.726Z,13.68
2022-09-01T10:11:55.811Z,10.55
2022-09-01T10:14:52.611Z,11.48
2022-09-01T10:17:35.983Z,9.02
2022-09-01T10:20:11.640Z,10.02
2022-09-01T10:22:40.286Z,9.50
2022-09-01T10:25:12.079Z,10.45
2022-09-01T10:30:18.724Z,15.02
2022-09-01T10:33:06.988Z,15.43
2022-09-01T10:35:44.417Z,11.57
2022-09-01T10:38:25.467Z,13.23
2022-09-01T10:41:07.903Z,12.00
2022-09-01T10:43:47.996Z,13.75
2022-09-01T10:46:38.853Z,11.75
2022-09-01T10:49:46.522Z,11.00
2022-09-01T10:52:43.316Z,11.20
2022-09-01T10:55:24.919Z,10.63
2022-09-01T10:59:31.134Z,15.93
2022-09-01T11:01:34.931Z,10.15
2022-09-01T11:03:56.859Z,11.07
2022-09-01T11:07:17.226Z,11.13
2022-09-01T11:10:34.465Z,11.15
2022-09-01T11:13:36.642Z,10.20
2022-09-01T11:16:47.932Z,10.20
2022-09-01T11:19:39.807Z,11.10
2022-09-01T11:22:14.024Z,11.52
2022-09-01T11:24:44.152Z,11.90
2022-09-01T11:27:48.277Z,12.07
2022-09-01T11:30:21.090Z,15.93
2022-09-01T11:32:57.670Z,11.00
2022-09-01T11:35:27.918Z,20.17
2022-09-01T11:38:04.292Z,12.23
2022-09-01T11:40:34.715Z,15.98
2022-09-01T11:43:12.844Z,14.68
2022-09-01T11:46:17.534Z,17.83
2022-09-01T11:48:51.789Z,18.35
2022-09-01T11:51:19.185Z,17.05
2022-09-01T11:53:46.917Z,15.90
2022-09-01T11:56:26.576Z,15.10
2022-09-01T11:58:53.313Z,15.50
2022-09-01T12:01:40.405Z,21.60
2022-09-01T12:04:28.526Z,14.55
2022-09-01T12:07:25.518Z,14.98
2022-09-01T12:09:52.392Z,14.20
2022-09-01T12:12:45.875Z,49.72
2022-09-01T12:15:26.637Z,24.52
2022-09-01T12:18:00.561Z,16.02
2022-09-01T12:20:32.953Z,15.35
2022-09-01T12:23:02.155Z,18.65
2022-09-01T12:25:31.493Z,12.75
2022-09-01T12:28:01.324Z,12.52
2022-09-01T12:30:29.062Z,18.43
2022-09-01T12:35:45.382Z,16.60
2022-09-01T12:38:24.419Z,15.43
2022-09-01T12:40:54.989Z,15.80
2022-09-01T12:46:06.344Z,13.32
2022-09-01T12:48:39.962Z,21.55
2022-09-01T12:51:26.643Z,15.52
2022-09-01T12:54:00.600Z,12.85
2022-09-01T12:56:33.770Z,12.95
2022-09-01T12:59:17.251Z,14.48
2022-09-01T13:01:45.020Z,12.30
2022-09-01T13:04:28.298Z,13.50
2022-09-01T13:07:02.285Z,26.48
2022-09-01T13:09:30.063Z,14.25
2022-09-01T13:12:12.335Z,15.55
2022-09-01T13:14:39.085Z,18.38
2022-09-01T13:17:05.961Z,14.32
2022-09-01T13:19:41.252Z,12.35
2022-09-01T13:22:08.010Z,15.98
2022-09-01T13:24:34.814Z,15.30
2022-09-01T13:29:49.264Z,14.77
2022-09-01T13:32:18.997Z,29.35
2022-09-01T13:34:50.524Z,14.65
2022-09-01T13:37:20.286Z,12.25
2022-09-01T13:39:47.267Z,14.32
2022-09-01T13:42:15.976Z,15.13
2022-09-01T13:44:44.213Z,10.85
2022-09-01T13:50:19.970Z,9.40
2022-09-01T13:52:55.159Z,10.20
2022-09-01T13:55:32.377Z,9.35
2022-09-01T13:57:59.745Z,9.50
2022-09-01T14:00:36.135Z,9.20
2022-09-01T14:03:11.226Z,9.13
2022-09-01T14:05:43.529Z,15.00
2022-09-01T14:08:12.750Z,8.50
2022-09-01T14:10:50.575Z,9.10
2022-09-01T14:13:19.199Z,8.18
2022-09-01T14:15:49.094Z,8.63
2022-09-01T14:18:17.305Z,8.38
2022-09-01T14:20:49.424Z,8.90
2022-09-01T14:23:16.750Z,8.52
2022-09-01T14:25:48.942Z,8.82
2022-09-01T14:28:20.419Z,9.00
2022-09-01T14:33:18.331Z,16.77
2022-09-01T14:35:48.050Z,8.90
2022-09-01T14:38:15.043Z,8.45
2022-09-01T14:40:43.606Z,9.57
2022-09-01T14:43:14.682Z,9.25
2022-09-01T14:48:12.434Z,10.05
2022-09-01T14:50:45.915Z,8.63
2022-09-01T14:53:13.189Z,8.25
2022-09-01T14:55:43.835Z,8.80
2022-09-01T14:58:11.552Z,9.02
2022-09-01T15:00:38.930Z,8.25
2022-09-01T15:03:05.714Z,8.70
2022-09-01T15:05:39.016Z,8.35
2022-09-01T15:08:08.990Z,7.75
2022-09-01T15:10:36.440Z,8.20
2022-09-01T15:13:04.257Z,9.30
2022-09-01T15:15:32.251Z,8.43
2022-09-01T15:18:00.358Z,7.78
2022-09-01T15:20:48.465Z,8.02
2022-09-01T15:23:23.742Z,8.45
2022-09-01T15:25:54.152Z,8.30
2022-09-01T15:28:22.673Z,8.63
2022-09-01T15:30:50.976Z,9.00
2022-09-01T15:33:21.128Z,8.45
2022-09-01T15:35:47.851Z,8.25
2022-09-01T15:38:17.432Z,8.23
2022-09-01T15:40:57.177Z,8.13
2022-09-01T15:43:26.653Z,8.43
2022-09-01T15:45:53.405Z,9.98
2022-09-01T15:48:20.171Z,9.00
2022-09-01T15:50:46.945Z,8.57
2022-09-01T15:53:13.762Z,8.90
2022-09-01T15:55:49.023Z,8.68
2022-09-01T15:58:18.246Z,8.80
2022-09-01T16:00:46.126Z,8.10
2022-09-01T16:03:13.105Z,8.07
2022-09-01T16:05:41.265Z,10.20
2022-09-01T16:08:09.566Z,8.20
2022-09-01T16:10:39.924Z,8.00
2022-09-01T16:13:07.373Z,8.07
2022-09-01T16:15:35.357Z,8.10
2022-09-01T16:18:41.306Z,8.00
2022-09-01T16:21:35.330Z,8.63
2022-09-01T16:24:11.796Z,7.70
2022-09-01T16:26:39.742Z,7.57
2022-09-01T16:29:34.723Z,7.90
2022-09-01T16:32:02.051Z,7.88
2022-09-01T16:34:31.993Z,8.27
2022-09-01T16:37:28.392Z,8.15
2022-09-01T16:40:10.261Z,8.27
2022-09-01T16:43:13.124Z,8.40
2022-09-01T16:46:05.611Z,8.00
2022-09-01T16:49:17.978Z,7.38
2022-09-01T16:52:05.719Z,8.18
2022-09-01T16:55:23.574Z,7.82
2022-09-01T16:58:23.600Z,7.90
2022-09-01T17:01:16.367Z,8.18
2022-09-01T17:04:29.368Z,8.45
2022-09-01T17:07:21.060Z,9.18
2022-09-01T17:10:06.799Z,8.48
2022-09-01T17:16:10.081Z,15.35
2022-09-01T17:18:41.319Z,8.48
2022-09-01T17:21:22.736Z,7.88
2022-09-01T17:26:29.735Z,7.80
2022-09-01T17:29:40.899Z,8.73
2022-09-01T17:32:55.608Z,7.85
2022-09-01T17:35:39.250Z,8.70
2022-09-01T17:39:01.066Z,8.00
2022-09-01T17:44:55.969Z,10.93
2022-09-01T17:47:52.930Z,8.15
2022-09-01T17:51:02.318Z,9.23
2022-09-01T17:53:44.549Z,8.80
2022-09-01T17:56:35.917Z,8.55
2022-09-01T17:59:33.952Z,8.13
2022-09-01T18:02:07.543Z,8.30
2022-09-01T18:04:42.770Z,9.10
2022-09-01T18:07:39.488Z,8.65
2022-09-01T18:10:24.323Z,9.02
2022-09-01T18:13:02.254Z,9.10
2022-09-01T18:15:52.514Z,8.95
2022-09-01T18:18:44.184Z,8.75
2022-09-01T18:21:22.008Z,8.65
2022-09-01T18:24:05.869Z,9.52
2022-09-01T18:26:37.358Z,11.82
2022-09-01T18:29:05.719Z,8.38
2022-09-01T18:31:35.781Z,8.75
2022-09-01T18:34:52.746Z,9.15
2022-09-01T18:37:58.026Z,9.25
2022-09-01T18:40:36.048Z,8.98
2022-09-01T18:43:14.132Z,8.90
2022-09-01T18:45:48.370Z,9.30
2022-09-01T18:48:56.193Z,9.38
2022-09-01T18:52:03.783Z,9.27
2022-09-01T18:54:58.603Z,10.02
2022-09-01T18:57:36.504Z,9.50
2022-09-01T19:00:18.649Z,9.20
2022-09-01T19:02:52.119Z,9.10
2022-09-01T19:05:58.057Z,9.70
2022-09-01T19:09:09.226Z,8.57
2022-09-01T19:12:04.145Z,9.43
2022-09-01T19:14:45.597Z,9.02
2022-09-01T19:17:48.498Z,8.30
2022-09-01T19:20:26.656Z,9.80
2022-09-01T19:23:19.240Z,9.30
2022-09-01T19:25:48.481Z,9.35
2022-09-01T19:28:57.381Z,9.23
2022-09-01T19:31:45.070Z,9.40
2022-09-01T19:34:16.345Z,9.30
2022-09-01T19:36:49.652Z,8.88
2022-09-01T19:39:25.113Z,9.13
2022-09-01T19:42:00.344Z,9.30
2022-09-01T19:44:51.205Z,9.43
2022-09-01T19:47:41.322Z,8.97
2022-09-01T19:50:13.896Z,9.38
2022-09-01T19:53:30.355Z,10.13
2022-09-01T19:56:15.681Z,9.93
2022-09-01T19:58:56.179Z,9.43
2022-09-01T20:02:21.101Z,9.93
2022-09-01T20:05:17.015Z,10.30
2022-09-01T20:07:54.112Z,10.77
2022-09-01T20:10:36.960Z,10.23
2022-09-01T20:13:43.726Z,12.00
2022-09-01T20:16:52.281Z,10.98
2022-09-01T20:19:49.347Z,11.02
2022-09-01T20:22:46.963Z,12.98
2022-09-01T20:25:19.149Z,10.80
2022-09-01T20:28:05.470Z,12.02
2022-09-01T20:30:44.543Z,11.77
2022-09-01T20:33:26.028Z,12.80
2022-09-01T20:35:56.528Z,12.90
2022-09-01T20:38:54.018Z,11.82
2022-09-01T20:41:42.762Z,13.00
2022-09-01T20:44:53.488Z,13.30
2022-09-01T20:47:23.576Z,13.57
2022-09-01T20:49:50.382Z,13.80
2022-09-01T20:52:46.269Z,12.25
2022-09-01T20:55:49.941Z,20.48
2022-09-01T20:58:33.811Z,12.63
2022-09-01T21:01:19.409Z,21.10
2022-09-01T21:04:08.200Z,21.83
2022-09-01T21:06:49.615Z,18.08
2022-09-01T21:09:48.873Z,23.67
2022-09-01T21:12:37.014Z,26.27
2022-09-01T21:15:09.830Z,30.90
2022-09-01T21:18:33.289Z,27.30
2022-09-01T21:21:36.148Z,34.72
2022-09-01T21:24:04.698Z,41.78
2022-09-01T21:26:34.492Z,35.00
2022-09-01T21:29:21.658Z,45.05
2022-09-01T21:31:52.061Z,41.15
2022-09-01T21:34:18.788Z,39.40
2022-09-01T21:36:46.070Z,46.10
2022-09-01T21:39:14.231Z,33.00
2022-09-01T21:41:41.618Z,32.42
2022-09-01T21:44:09.405Z,50.65
2022-09-01T21:46:36.417Z,36.38
2022-09-01T21:49:03.263Z,34.65
2022-09-01T21:51:30.020Z,27.27
2022-09-01T21:53:56.867Z,40.50
2022-09-01T21:56:25.664Z,83.82
2022-09-01T21:58:52.909Z,40.30
2022-09-01T22:01:19.691Z,16.63
2022-09-01T22:03:46.540Z,16.02
2022-09-01T22:06:13.486Z,14.45
2022-09-01T22:08:40.281Z,16.00
2022-09-01T22:11:10.184Z,16.15
2022-09-01T22:13:37.063Z,52.90
2022-09-01T22:16:04.748Z,42.35
2022-09-01T22:18:31.582Z,50.33
2022-09-01T22:21:08.055Z,41.78
2022-09-01T22:23:35.538Z,53.30
2022-09-01T22:26:02.369Z,46.78
2022-09-01T22:28:29.254Z,17.50
2022-09-01T22:30:56.107Z,46.08
2022-09-01T22:33:23.534Z,49.05
2022-09-01T22:35:54.122Z,43.97
2022-09-01T22:38:22.275Z,39.38
2022-09-01T22:40:54.890Z,40.60
2022-09-01T22:43:24.148Z,41.75
2022-09-01T22:45:51.982Z,46.10
2022-09-01T22:48:23.152Z,47.35
2022-09-01T22:50:51.334Z,37.65
2022-09-01T22:53:20.785Z,39.10
2022-09-01T22:55:50.826Z,34.25
2022-09-01T22:58:18.347Z,36.03
2022-09-01T23:00:49.553Z,19.20
2022-09-01T23:03:17.858Z,31.77
2022-09-01T23:05:45.044Z,15.35
2022-09-01T23:08:12.767Z,39.47
2022-09-01T23:10:39.723Z,36.25
2022-09-01T23:13:06.537Z,36.72
2022-09-01T23:15:33.875Z,37.42
2022-09-01T23:18:00.833Z,33.17
2022-09-01T23:20:28.348Z,32.50
2022-09-01T23:22:55.101Z,38.90
2022-09-01T23:25:22.016Z,35.28
2022-09-01T23:27:48.746Z,29.75
2022-09-01T23:30:16.164Z,30.38
2022-09-01T23:32:43.575Z,30.45
2022-09-01T23:35:10.848Z,36.00
2022-09-01T23:37:37.603Z,34.72
2022-09-01T23:40:07.212Z,34.08
2022-09-01T23:42:34.182Z,34.92
2022-09-01T23:45:00.938Z,35.42
2022-09-01T23:47:28.009Z,33.90
2022-09-01T23:49:56.346Z,34.75
2022-09-01T23:52:23.067Z,33.95
2022-09-01T23:54:49.794Z,32.85
2022-09-01T23:57:16.516Z,33.05
2022-09-01T23:59:43.263Z,34.95
